Bienvenidos al Sitio de AASANA BOLIVIA
Aeropuerto: Internaciónal El Alto
HORA UTC 03:00
05°C
Humedad: 80%

Fecha: 24/01/2019


Sin Fenómeno
ESTACIÓN:SLLP
LATITUD|LONGITUD:16-08S|68-10W
HORA UTC:03:00
DESCRIPCIÓN: SLLP 240300Z 07004KT 9999 FEW015 BKN200 05/01 Q1041 A3074 630.0 HR80 NOSIG=
Regional La Paz
EstaciónAerodromoSit. GeograficaDescripción
SLLPInternaciónal El Alto16-08S-68-10W SLLP 240300Z 07004KT 9999 FEW015 BKN200 05/01 Q1041 A3074 630.0 HR80 NOSIG=
SLAPApolo14-44S-68-24W SLAP 231900Z 02016KT 9999 TS SCT020 FEW023CB BKN200 26/17 Q1018 A3009 HR55 CB/S/SW/W TS/SW=
SLUYUyuni20-27S-62-52W SLUY 240300Z 00000KT 9999 FEW025 BKN200 10/01 Q1036 A3061 660.0 HR52 AC=
SLCNCharaña17-35S-69-25WNO SE REGISTRAN DATOS
SLRYReyes14-18S-67-21W SLRY 232200Z 00000KT 9999 FEW020 32/24 Q1007 A2976 HR64 RWY HUM OPR=
SLOROruro17-57S-67-04W SLOR 231800Z 01015KT 9999 SCT025 FEW027CB 21/04 Q1037 A3062 657 .3 HR34 CB/NE AC/CI=
SLRQRurrenabaque14-25S-67-29W SLRQ 232200Z 34005KT 9999 FEW020 SCT200 33/25 Q1008 A2979 984.8 HR64=
SLSBSan Borja14-51S-66-44W SLSB 232300Z 00000KT 9999 NSC 29/24 Q1010 A2984 HR73 RWY WET OPR C210=
SLCCCopacabana - Tito Yupanqui16-11S-69-05W SLCC 181700Z 22008KT 9999 SCT020 FEW020CB BKN200 14/02 Q1038 A3066 646.3 HR44 CB SW=
Regional Cochabamba
EstaciónAerodromoSit. GeograficaDescripción
SLAGMonteagudo19-49S-63-58W SLAG 312200Z 00000KT 9999 FEW023 BKN200 27/19 Q1009 A2982 882.8 HR60 AC=
SLHIChimore16-58S-65-09W SLHI 232300Z 00000KT 9999 FEW017 29/25 Q1010 A2985 983.6 HR77 CI=
SLBJBermejo22-46S-64-18W SLBJ 042000Z 00000KT 9999 SCT030 BKN070 BKN200 30/22 Q1006 A2971 HR62=
SLVMVillamontes21-15S-63-24W SLVM 232000Z 36015G27KT 9999 NSC 41/21 Q1004 A2966 HR33 FU CI=
SLYAYacuiba21-57S-63-39W SLYA 232300Z 00000KT 9999 NSC 33/22 Q1007 A2974 932.2 HR52=
SLPOPotosí19-32S-65-43W SLPO 231200Z 00000KT 9999 NSC 10/08 Q1042 A3077 640.2 HR86=
SLALAlcantari19-14S-65-09W SLAL 240200Z 01007KT 9999 NSC 16/08 Q1030 A3044 705.0 HR59=
SLTJTarija21-33S-64-42W SLTJ 240200Z 00000KT 9999 NSC 23/17 Q1020 A3015 815.7 HR69=
SLCBCochabamba17-25S-66-10W SLCB 240200Z 17005KT 9999 FEW030 19/08 Q1025 A3030 752.1 HR48 CI NOSIG=
Regional Santa Cruz
EstaciónAerodromoSit. GeograficaDescripción
SLASAscención de Guarayos15-55S-63-09W SLAS 232300Z 00000KT 9999 NSC 29/24 Q1013 A2991 HR72 RWY NML=
SLPSPuerto Suárez18-58S-57-49W SLPS 232300Z 00000KT 9999 NSC 34/24 Q1007 A2974 HR58 CI=
SLTISan Matías16-20S-58-24W SLTI 232200Z 00000KT 9999 FEW030CB OVC200 35/26 Q1012 A2988 HR57 CB E RWY NML=
SLVGValle Grande18-28S-64-05W SLVG 232100Z 36005KT 9999 NSC 25/14 Q1023 A3021 HR47 RWY NML=
SLVRInternaciónal Viru Viru17-38S-63-08W SLVR 240300Z 35006KT 9999 NSC 25/22 Q1012 A2989 HR88 CI NOSIG=
SLCPConcepción16-08S-62-01W SLCP 232200Z 35005KT 9999 FEW017 30/23 Q1013 A2991 HR67 RWY NML =
SLJESan José de Chiquitos17-49S-60-44W SLJE 232200Z 00000KT 9999 SCT020 34/22 Q1012 A2988 HR50 RWY NML =
SLJVSan Javier16-16S-62-28W SLJV 232200Z 00000KT 9999 NSC 29/22 Q1011 A2985 HR65 RWY NML=
SLETEl Trompillo17-48S-63-10W SLET 232300Z 32010KT 9999 FEW015 29/22 Q1010 A2983 HR65 NOSIG=
SLSISan Ignacio de Velasco16-23S-60-57W SLSI 232300Z 00000KT 9999 NSC 30/22 Q1011 A2985 HR62 RWY NML=
SLRBRoboré18-19S-59-45W SLRB 232300Z 00000KT 9999 NSC 35/23 Q1011 A2985 HR49 RWY NML=
SLCACamiri20-00S-63-31W SLCA 232300Z 36004KT 9999 NSC 33/17 Q1011 A2985 HR41 RWY NML=
Regional Beni
EstaciónAerodromoSit. GeograficaDescripción
SLGMGuayaramerín10-53S-65-23W SLGM 232300Z 00000KT 9999 SCT020 FEW023CB OVC200 25/24 Q1010 A2985 HR92 CB NW=
SLJOSan Joaquin13-03S-64-39W SLJO 232100Z 09004KT 9999 FEW017 FEW023CB BKN200 30/26 Q1011 A2986 HR80 CB NW RWY NML=
SLRASan Ramón13-15S-64-36W SLRA 232100Z 09004KT 9999 FEW017 BKN200 30/25 Q1012 A2990 HR74 RWY NML=
SLMGSan Magdalena13-15S-64-36W SLMG 232300Z 00000KT 9999 FEW017 BKN200 29/25 Q1010 A2984 HR82 RWY NML=
SLSASanta Ana de Yacuma13-45S-65-26W SLSA 232300Z 32005KT 9999 FEW020 BKN200 31/24 Q1009 A2980 HR64=
SLBUBaures13-39S-63-42W SLBU 232100Z 32004KT 9999 FEW017 BKN200 31/25 Q1009 A2980 HR70 RWY NML=
SLSMSan Ignacio de Moxos14-57S-65-38W SLSM 232100Z 34006KT 9999 FEW017 31/24 Q1008 A2978 HR68 RWY HUM OPR=
SLSRSanta Rosa14-04S-66-47W SLSR 232100Z 34006KT 9999 SCT017 FEW023CB BKN200 30/25 Q1010 A2983 HR73 CB NE RWY HUM OPR=
SLTRTrinidad14-49S-64-54W SLTR 232300Z 00000KT 9999 FEW017 BKN200 30/24 Q1010 A2983 991.5 HR73 NOSIG=
SLRIRiberalta11-00S-66-04W SLRI 232300Z 00000KT 5000 VCSH BKN015 FEW020CB OVC200 26/24 Q1012 A2989 HR85 CB/SH N/NE/E/NW=
SLCOCobija11-02S-68-47W SLCO 232300Z 00000KT 9999 FEW025 FEW027CB BKN200 31/25 Q1010 A2983 982.8 HR68 CB/SE AC=